Time;durP1;ratioP1;P1;durP2;ratioP2;P2;SDS_P1;SDS_P2;PMS_P1;PMS_P2;Temp;Humidity;BMP_temperature;BMP_pressure;BME280_temperature;BME280_humidity;BME280_pressure;Samples;Min_cycle;Max_cycle;Signal;HPM_P1;HPM_P2
2022/06/04 00:00:10;;;;;;;23.13;3.53;;;16.50;99.90;;;;;;4985517;28;20545;-66
2022/06/04 00:02:42;;;;;;;12.82;3.53;;;16.40;99.90;;;;;;4983646;28;20576;-65
2022/06/04 00:05:09;;;;;;;15.82;3.42;;;16.20;99.90;;;;;;4982298;28;20076;-66
2022/06/04 00:07:35;;;;;;;7.75;2.50;;;16.20;99.90;;;;;;4989072;28;20039;-66
2022/06/04 00:15:41;;;;;;;8.60;2.78;;;16.00;99.90;;;;;;4986382;28;20034;-66
2022/06/04 00:18:07;;;;;;;5.88;2.20;;;16.10;99.90;;;;;;4985070;28;20050;-66
2022/06/04 00:20:33;;;;;;;6.20;2.17;;;16.20;99.90;;;;;;4983708;28;20568;-66
2022/06/04 00:23:01;;;;;;;6.03;1.80;;;16.20;99.90;;;;;;4983809;28;20050;-67
2022/06/04 00:25:27;;;;;;;6.95;1.90;;;16.20;99.90;;;;;;4985025;28;20505;-66
2022/06/04 00:27:55;;;;;;;5.35;1.60;;;16.10;99.90;;;;;;4983098;28;20046;-66
2022/06/04 00:30:21;;;;;;;6.18;1.38;;;16.20;99.90;;;;;;4983233;28;20520;-66
2022/06/04 00:32:47;;;;;;;7.95;1.65;;;16.30;99.90;;;;;;4984588;28;20046;-66
2022/06/04 00:35:13;;;;;;;4.82;1.30;;;16.40;99.90;;;;;;4983420;28;20113;-67
2022/06/04 00:37:40;;;;;;;3.03;1.50;;;16.40;99.90;;;;;;4985277;28;20053;-66
2022/06/04 00:40:08;;;;;;;6.90;1.70;;;16.50;99.90;;;;;;4984676;28;20035;-67
2022/06/04 00:42:34;;;;;;;5.88;1.85;;;16.40;99.90;;;;;;4983360;28;20043;-67
2022/06/04 00:45:21;;;;;;;4.75;1.50;;;16.30;99.90;;;;;;4983231;28;20379;-66
2022/06/04 00:47:51;;;;;;;4.90;1.42;;;16.30;99.90;;;;;;4986544;28;20046;-66
2022/06/04 00:50:20;;;;;;;4.05;1.30;;;16.30;99.90;;;;;;4983579;28;20054;-66
2022/06/04 00:52:49;;;;;;;6.18;1.33;;;16.50;99.90;;;;;;4984977;28;20050;-67
2022/06/04 00:55:17;;;;;;;4.05;1.27;;;16.60;99.90;;;;;;4983643;28;20039;-67
2022/06/04 00:58:20;;;;;;;5.00;1.30;;;16.60;99.90;;;;;;4983196;28;20513;-66
2022/06/04 01:00:56;;;;;;;3.92;1.20;;;16.60;99.90;;;;;;4984666;28;20050;-66
2022/06/04 01:03:54;;;;;;;2.42;1.30;;;16.50;99.90;;;;;;4983634;28;20042;-66
2022/06/04 01:06:26;;;;;;;5.43;1.38;;;16.30;99.90;;;;;;4984186;28;20497;-66
2022/06/04 01:09:13;;;;;;;4.82;1.40;;;16.10;99.90;;;;;;4986964;28;20034;-66
2022/06/04 01:12:09;;;;;;;8.90;1.73;;;16.10;99.90;;;;;;4987793;28;20050;-66
2022/06/04 01:14:47;;;;;;;4.43;1.65;;;16.10;99.90;;;;;;4985484;28;20188;-66
2022/06/04 01:17:48;;;;;;;14.00;1.55;;;16.10;99.90;;;;;;4987533;28;20046;-66
2022/06/04 01:20:44;;;;;;;2.65;1.50;;;15.90;99.90;;;;;;4988300;28;20466;-66
2022/06/04 01:23:34;;;;;;;7.53;1.45;;;15.90;99.90;;;;;;4987458;28;20054;-66
2022/06/04 01:26:28;;;;;;;6.60;2.05;;;15.90;99.90;;;;;;4985249;28;20401;-66
2022/06/04 01:29:00;;;;;;;4.20;1.40;;;15.80;99.90;;;;;;4983394;28;20523;-66
2022/06/04 01:31:41;;;;;;;5.03;1.52;;;16.00;99.90;;;;;;4983478;28;20144;-66
2022/06/04 01:34:10;;;;;;;7.35;1.92;;;16.10;99.90;;;;;;4983617;28;20524;-66
2022/06/04 01:36:42;;;;;;;3.13;1.30;;;16.20;99.90;;;;;;4982606;28;20093;-66
2022/06/04 01:42:27;;;;;;;10.85;1.63;;;16.40;99.90;;;;;;4983984;28;20037;-67
2022/06/04 01:44:56;;;;;;;5.57;1.70;;;16.30;99.90;;;;;;4989763;28;20038;-67
2022/06/04 01:47:23;;;;;;;5.97;1.50;;;16.40;99.90;;;;;;4980682;28;20041;-66
2022/06/04 01:49:54;;;;;;;10.07;1.70;;;16.30;99.90;;;;;;4972199;28;20039;-67
2022/06/04 01:52:25;;;;;;;5.15;1.40;;;16.20;99.90;;;;;;4974799;28;20526;-67
2022/06/04 01:55:04;;;;;;;3.90;1.80;;;16.20;99.90;;;;;;4974317;28;20428;-67
2022/06/04 01:57:52;;;;;;;5.55;1.55;;;16.20;99.90;;;;;;4974325;28;20054;-66
2022/06/04 02:00:23;;;;;;;5.03;2.00;;;16.10;99.90;;;;;;4973714;28;20047;-66
2022/06/04 02:03:01;;;;;;;6.90;1.95;;;16.00;99.90;;;;;;4988433;28;20038;-67
2022/06/04 02:05:37;;;;;;;8.48;1.77;;;16.00;99.90;;;;;;5006600;28;20524;-67
2022/06/04 02:08:06;;;;;;;7.57;1.70;;;16.10;99.90;;;;;;4993910;28;20042;-67
2022/06/04 02:10:43;;;;;;;10.52;1.90;;;16.10;99.90;;;;;;4994157;28;20100;-67
2022/06/04 02:13:12;;;;;;;7.60;1.88;;;16.20;99.90;;;;;;4994291;28;20046;-67
2022/06/04 02:15:44;;;;;;;3.50;1.90;;;16.20;99.90;;;;;;4994225;28;20039;-67
2022/06/04 02:18:11;;;;;;;4.85;2.17;;;16.20;99.90;;;;;;4994169;28;20072;-67
2022/06/04 02:20:37;;;;;;;5.20;1.55;;;16.20;99.90;;;;;;4994486;28;20105;-67
2022/06/04 02:23:04;;;;;;;4.00;1.48;;;16.10;99.90;;;;;;4994629;28;20505;-67
2022/06/04 02:25:30;;;;;;;4.50;1.30;;;16.10;99.90;;;;;;4994607;28;20042;-67
2022/06/04 02:27:57;;;;;;;4.00;1.20;;;16.10;99.90;;;;;;4994511;28;20034;-67
2022/06/04 02:30:27;;;;;;;4.95;1.77;;;16.10;99.90;;;;;;4994465;28;20057;-67
2022/06/04 02:33:03;;;;;;;4.68;1.52;;;16.20;99.90;;;;;;4994460;28;20034;-67
2022/06/04 02:35:58;;;;;;;6.63;2.00;;;16.30;99.90;;;;;;4994409;28;20129;-67
2022/06/04 02:38:36;;;;;;;2.90;1.60;;;16.30;99.90;;;;;;4979067;28;20042;-67
2022/06/04 02:41:09;;;;;;;5.63;1.73;;;16.30;99.90;;;;;;4994182;28;20038;-67
2022/06/04 02:43:46;;;;;;;6.60;1.58;;;16.00;99.90;;;;;;4993903;28;20121;-67
2022/06/04 02:46:27;;;;;;;2.22;1.23;;;16.00;99.90;;;;;;4993953;28;20042;-67
2022/06/04 02:49:12;;;;;;;;;;;15.90;99.90;;;;;;4994948;28;20045;-67
2022/06/04 02:51:45;;;;;;;4.25;1.63;;;15.80;99.90;;;;;;4994078;28;20435;-67
2022/06/04 02:54:37;;;;;;;4.38;1.45;;;15.70;99.90;;;;;;4993809;28;20077;-67
2022/06/04 02:57:05;;;;;;;7.15;1.33;;;15.70;99.90;;;;;;4994071;28;20129;-67
2022/06/04 02:59:34;;;;;;;4.00;1.30;;;15.80;99.90;;;;;;4993839;28;20042;-67
2022/06/04 03:02:01;;;;;;;1.55;0.80;;;15.70;99.90;;;;;;4993824;28;20129;-67
2022/06/04 03:04:28;;;;;;;2.60;1.15;;;15.80;99.90;;;;;;4993760;28;20038;-67
2022/06/04 03:07:03;;;;;;;3.55;1.02;;;15.80;99.90;;;;;;4990367;28;20065;-67
2022/06/04 03:09:29;;;;;;;2.13;0.95;;;15.80;99.90;;;;;;4993547;28;20048;-67
2022/06/04 03:11:55;;;;;;;7.45;1.25;;;15.90;99.90;;;;;;4993354;28;20061;-67
2022/06/04 03:14:20;;;;;;;4.38;0.98;;;16.00;99.90;;;;;;4993521;28;20405;-67
2022/06/04 03:16:48;;;;;;;3.25;0.90;;;16.00;99.90;;;;;;4993737;28;20042;-67
2022/06/04 03:19:14;;;;;;;2.08;0.70;;;16.10;99.90;;;;;;4993577;28;20069;-67
2022/06/04 03:21:41;;;;;;;2.45;0.80;;;16.10;99.90;;;;;;4993494;28;20533;-67
2022/06/04 03:24:09;;;;;;;6.55;1.17;;;16.10;99.90;;;;;;4993710;28;20094;-67
2022/06/04 03:26:35;;;;;;;3.85;1.35;;;16.10;99.90;;;;;;4993714;28;20046;-67
2022/06/04 03:29:01;;;;;;;2.03;0.85;;;16.00;99.90;;;;;;4993762;28;20169;-67
2022/06/04 03:31:28;;;;;;;2.45;1.10;;;15.90;99.90;;;;;;4993553;28;20141;-67
2022/06/04 03:33:55;;;;;;;5.55;1.30;;;15.80;99.90;;;;;;4993680;28;20397;-67
2022/06/04 03:36:22;;;;;;;6.72;1.52;;;15.70;99.90;;;;;;4993615;28;20130;-67
2022/06/04 03:38:49;;;;;;;2.50;1.02;;;15.60;99.90;;;;;;4993406;28;20149;-67
2022/06/04 03:41:14;;;;;;;6.38;1.48;;;15.50;99.90;;;;;;4996345;28;20042;-66
2022/06/04 03:43:41;;;;;;;10.02;1.80;;;15.50;99.90;;;;;;4997521;28;20026;-67
2022/06/04 03:46:07;;;;;;;2.80;1.65;;;15.40;99.90;;;;;;4997478;28;20054;-67
2022/06/04 03:48:34;;;;;;;4.07;1.42;;;15.40;99.90;;;;;;4997436;28;20038;-67
2022/06/04 03:51:01;;;;;;;5.32;1.92;;;15.40;99.90;;;;;;4997251;28;20058;-67
2022/06/04 03:53:27;;;;;;;3.55;1.55;;;15.40;99.90;;;;;;4996976;28;20042;-67
2022/06/04 03:55:52;;;;;;;3.25;1.60;;;15.40;99.90;;;;;;4997035;28;20053;-67
2022/06/04 03:58:18;;;;;;;4.07;1.65;;;15.30;99.90;;;;;;4997267;28;20046;-67
2022/06/04 04:00:45;;;;;;;9.50;2.00;;;15.40;99.90;;;;;;4997444;28;20042;-67
2022/06/04 04:03:17;;;;;;;3.65;1.60;;;15.60;99.90;;;;;;4997335;28;20042;-67
2022/06/04 04:05:52;;;;;;;7.90;2.45;;;15.80;99.90;;;;;;4997363;28;20038;-67
2022/06/04 04:08:20;;;;;;;11.05;1.90;;;15.80;99.90;;;;;;4997029;28;20042;-66
2022/06/04 04:10:46;;;;;;;4.28;1.67;;;15.80;99.90;;;;;;4996900;28;20494;-67
2022/06/04 04:13:14;;;;;;;4.13;1.85;;;15.60;99.90;;;;;;4996903;28;20042;-67
2022/06/04 04:15:40;;;;;;;7.35;2.00;;;15.60;99.90;;;;;;4996755;28;20137;-67
2022/06/04 04:18:07;;;;;;;5.53;1.95;;;15.60;99.90;;;;;;4996766;28;20068;-67
2022/06/04 04:20:35;;;;;;;3.67;1.95;;;15.70;99.90;;;;;;4996648;28;20034;-66
2022/06/04 04:23:02;;;;;;;4.15;1.75;;;15.60;99.90;;;;;;4996834;28;20053;-67
2022/06/04 04:25:30;;;;;;;6.93;1.77;;;15.60;99.90;;;;;;4996875;28;20084;-67
2022/06/04 04:27:56;;;;;;;6.65;2.30;;;15.70;99.90;;;;;;4996859;28;20528;-67
2022/06/04 04:30:27;;;;;;;6.97;2.08;;;15.70;99.90;;;;;;4996845;28;20081;-66
2022/06/04 04:32:53;;;;;;;5.72;1.80;;;15.80;99.90;;;;;;4996759;28;20405;-67
2022/06/04 04:35:22;;;;;;;3.88;1.40;;;15.90;99.90;;;;;;4996448;28;20548;-67
2022/06/04 04:37:48;;;;;;;4.45;2.17;;;15.80;99.90;;;;;;4996336;28;20042;-67
2022/06/04 04:40:18;;;;;;;10.10;1.80;;;15.70;99.90;;;;;;4996255;28;20097;-67
2022/06/04 04:42:44;;;;;;;6.90;1.60;;;15.40;99.90;;;;;;4996134;28;20046;-67
2022/06/04 04:45:12;;;;;;;2.58;1.30;;;15.30;99.90;;;;;;4996142;28;20080;-67
2022/06/04 04:47:40;;;;;;;5.32;1.80;;;15.40;99.90;;;;;;4996203;28;20150;-67
2022/06/04 04:50:11;;;;;;;4.28;2.00;;;15.40;99.90;;;;;;4996193;28;20042;-67
2022/06/04 04:52:37;;;;;;;8.35;1.85;;;15.60;99.90;;;;;;4994867;28;20038;-67
2022/06/04 04:55:03;;;;;;;6.63;1.48;;;15.80;99.90;;;;;;4996404;28;20046;-67
2022/06/04 04:57:29;;;;;;;3.47;1.38;;;15.80;99.90;;;;;;4996134;28;20129;-66
2022/06/04 04:59:55;;;;;;;2.85;1.48;;;15.80;99.90;;;;;;4996026;28;20117;-67
2022/06/04 05:02:21;;;;;;;2.88;1.38;;;15.90;99.90;;;;;;4995987;28;20077;-67
2022/06/04 05:04:47;;;;;;;5.20;1.63;;;15.80;99.90;;;;;;4993036;28;20167;-66
2022/06/04 05:07:13;;;;;;;5.88;1.95;;;15.90;99.90;;;;;;4996295;28;20097;-67
2022/06/04 05:09:40;;;;;;;3.13;1.60;;;16.00;99.90;;;;;;4995905;28;20034;-67
2022/06/04 05:12:09;;;;;;;4.43;1.52;;;16.20;99.90;;;;;;4995741;28;20046;-67
2022/06/04 05:14:36;;;;;;;2.17;1.25;;;16.30;99.90;;;;;;4995724;28;20034;-67
2022/06/04 05:17:02;;;;;;;12.43;4.38;;;16.40;99.90;;;;;;4995532;28;20101;-67
2022/06/04 05:19:28;;;;;;;4.07;1.60;;;16.60;99.90;;;;;;4995766;28;20042;-66
2022/06/04 05:21:55;;;;;;;10.30;2.30;;;16.80;99.90;;;;;;4995737;28;20030;-66
2022/06/04 05:24:29;;;;;;;6.43;1.75;;;17.00;99.90;;;;;;4995859;28;20058;-66
2022/06/04 05:26:55;;;;;;;3.25;1.33;;;17.10;99.90;;;;;;4994446;28;20074;-66
2022/06/04 05:29:22;;;;;;;5.97;1.38;;;17.30;99.90;;;;;;4995615;28;20509;-67
2022/06/04 05:31:48;;;;;;;6.55;2.08;;;17.50;99.90;;;;;;4977481;28;20050;-66
2022/06/04 05:34:16;;;;;;;14.95;2.25;;;17.50;99.90;;;;;;4994941;28;20050;-66
2022/06/04 05:36:43;;;;;;;6.20;1.55;;;17.70;99.90;;;;;;4994924;28;20054;-66
2022/06/04 05:39:10;;;;;;;3.90;1.40;;;17.60;99.90;;;;;;4994568;28;20155;-67
2022/06/04 05:41:36;;;;;;;1.70;1.00;;;17.70;99.90;;;;;;4995107;28;20406;-66
2022/06/04 05:44:03;;;;;;;6.97;2.03;;;17.50;99.90;;;;;;4994226;28;20046;-66
2022/06/04 05:46:29;;;;;;;2.78;1.08;;;17.70;99.90;;;;;;4995362;28;20034;-66
2022/06/04 05:48:55;;;;;;;6.47;1.45;;;18.10;99.90;;;;;;4995369;28;20125;-67
2022/06/04 05:51:24;;;;;;;5.85;1.70;;;18.20;99.90;;;;;;4995478;28;20406;-67
2022/06/04 05:53:51;;;;;;;7.53;1.52;;;18.20;99.90;;;;;;4995376;28;20045;-67
2022/06/04 05:56:20;;;;;;;5.95;3.28;;;18.40;99.90;;;;;;4995246;28;20045;-67
2022/06/04 05:58:47;;;;;;;8.93;2.70;;;18.50;99.90;;;;;;4995221;28;20074;-67
2022/06/04 06:01:14;;;;;;;44.03;30.95;;;18.30;99.90;;;;;;4995060;28;20046;-67
2022/06/04 06:03:41;;;;;;;4.22;2.03;;;18.50;99.90;;;;;;4991616;28;20413;-67
2022/06/04 06:06:12;;;;;;;4.78;2.65;;;18.60;99.90;;;;;;4992352;28;20038;-67
2022/06/04 06:08:38;;;;;;;11.55;3.90;;;18.90;99.90;;;;;;4993673;28;20050;-67
2022/06/04 06:11:13;;;;;;;4.72;1.88;;;19.20;99.90;;;;;;4994189;28;20244;-67
2022/06/04 06:13:40;;;;;;;4.38;1.52;;;;;;;;;;4994837;28;20034;-68
2022/06/04 06:16:08;;;;;;;5.10;1.60;;;19.70;99.90;;;;;;4994836;28;20528;-68
2022/06/04 06:18:34;;;;;;;6.93;3.47;;;19.60;99.90;;;;;;4994612;28;20049;-68
2022/06/04 06:21:14;;;;;;;5.40;1.38;;;19.50;99.90;;;;;;4994552;28;20037;-67
2022/06/04 06:23:40;;;;;;;3.38;1.63;;;19.60;99.90;;;;;;4994338;28;20088;-67
2022/06/04 06:26:09;;;;;;;7.53;1.70;;;19.70;99.90;;;;;;4994200;28;20073;-67
2022/06/04 06:28:36;;;;;;;8.02;1.90;;;19.80;99.90;;;;;;4994122;28;20165;-68
2022/06/04 06:31:04;;;;;;;6.38;1.50;;;19.90;99.90;;;;;;4994143;28;20096;-68
2022/06/04 06:33:29;;;;;;;4.25;2.33;;;20.00;99.90;;;;;;4993897;28;20042;-67
2022/06/04 06:36:00;;;;;;;52.78;40.20;;;20.00;99.90;;;;;;4993045;28;20050;-68
2022/06/04 06:38:27;;;;;;;3.78;2.08;;;20.20;99.90;;;;;;4993408;28;20038;-67
2022/06/04 06:40:54;;;;;;;9.45;1.50;;;20.30;99.90;;;;;;4993164;28;20133;-67
2022/06/04 06:43:21;;;;;;;9.20;1.40;;;;;;;;;;4994274;28;20038;-67
2022/06/04 06:45:47;;;;;;;8.52;3.63;;;20.70;99.90;;;;;;4994279;28;20485;-68
2022/06/04 06:48:13;;;;;;;489.98;29.88;;;20.80;99.90;;;;;;4993803;28;20042;-67
2022/06/04 06:50:43;;;;;;;5.90;1.23;;;21.00;99.90;;;;;;4993994;28;20050;-67
2022/06/04 06:53:09;;;;;;;2.42;1.20;;;20.30;99.90;;;;;;4994400;28;20124;-67
2022/06/04 06:55:34;;;;;;;5.38;1.35;;;20.50;99.90;;;;;;4994199;28;20050;-67
2022/06/04 06:58:00;;;;;;;2.97;0.93;;;20.90;99.90;;;;;;4993959;28;20551;-67
2022/06/04 07:00:26;;;;;;;10.85;1.33;;;21.20;99.90;;;;;;4992516;28;20096;-67
2022/06/04 07:02:52;;;;;;;4.55;1.50;;;21.10;99.90;;;;;;4993806;28;20053;-67
2022/06/04 07:05:18;;;;;;;2.75;1.17;;;21.30;99.90;;;;;;4993731;28;20096;-67
2022/06/04 07:07:43;;;;;;;3.42;1.08;;;21.20;99.90;;;;;;4993827;28;20037;-67
2022/06/04 07:10:10;;;;;;;5.95;1.20;;;21.30;99.90;;;;;;4993831;28;20077;-67
2022/06/04 07:12:36;;;;;;;7.32;1.00;;;21.60;99.90;;;;;;4990507;28;20074;-67
2022/06/04 07:15:03;;;;;;;3.53;1.30;;;21.50;99.90;;;;;;4993015;28;20597;-67
2022/06/04 07:17:29;;;;;;;2.70;1.35;;;21.60;99.90;;;;;;4993491;28;20081;-68
2022/06/04 07:19:55;;;;;;;1.85;0.88;;;21.50;99.90;;;;;;4993392;28;20071;-67
2022/06/04 07:22:20;;;;;;;6.20;1.13;;;22.10;99.90;;;;;;4993591;28;20038;-67
2022/06/04 07:24:46;;;;;;;8.40;1.27;;;21.90;99.90;;;;;;4993614;28;20053;-68
2022/06/04 07:27:12;;;;;;;1.75;0.70;;;22.40;99.90;;;;;;4993646;28;20034;-68
2022/06/04 07:29:38;;;;;;;3.90;0.95;;;22.40;99.90;;;;;;4993774;28;20413;-67
2022/06/04 07:32:04;;;;;;;7.05;1.35;;;22.50;99.90;;;;;;4993597;28;20517;-67
2022/06/04 07:34:30;;;;;;;3.53;1.30;;;22.60;99.90;;;;;;4993522;28;20046;-68
2022/06/04 07:36:56;;;;;;;3.28;1.30;;;22.30;99.90;;;;;;4993634;28;20050;-67
2022/06/04 07:39:22;;;;;;;4.82;1.00;;;22.40;99.90;;;;;;4993656;28;20031;-68
2022/06/04 07:41:54;;;;;;;3.72;0.90;;;22.50;99.90;;;;;;4993549;28;20035;-67
2022/06/04 07:44:22;;;;;;;4.07;1.55;;;22.10;99.90;;;;;;4993217;28;20042;-67
2022/06/04 07:46:49;;;;;;;11.05;1.17;;;21.70;99.90;;;;;;4993237;28;20041;-67
2022/06/04 07:49:15;;;;;;;4.68;1.30;;;22.30;99.90;;;;;;4993239;28;20046;-67
2022/06/04 07:51:42;;;;;;;6.43;1.48;;;22.40;99.90;;;;;;4993252;28;20496;-67
2022/06/04 07:54:09;;;;;;;2.90;1.15;;;22.10;99.90;;;;;;4993551;28;20037;-68
2022/06/04 07:56:36;;;;;;;3.72;1.20;;;21.90;99.90;;;;;;4993887;28;20045;-67
2022/06/04 07:59:03;;;;;;;5.25;1.40;;;21.90;99.90;;;;;;4993207;28;20050;-67
2022/06/04 08:01:30;;;;;;;4.82;1.15;;;22.00;99.90;;;;;;4992715;28;20089;-67
2022/06/04 08:03:56;;;;;;;2.88;1.05;;;22.00;99.90;;;;;;4983940;28;20050;-67
2022/06/04 08:06:23;;;;;;;4.13;1.35;;;22.20;99.90;;;;;;4975862;28;20045;-67
2022/06/04 08:08:51;;;;;;;1.92;1.05;;;22.20;99.90;;;;;;4993253;28;20038;-67
2022/06/04 08:11:34;;;;;;;5.32;1.17;;;22.80;99.90;;;;;;4993283;28;20056;-68
2022/06/04 08:14:03;;;;;;;3.58;1.25;;;23.00;99.90;;;;;;4985615;28;20042;-67
2022/06/04 08:16:29;;;;;;;4.47;1.48;;;23.30;99.90;;;;;;4978444;28;20042;-68
2022/06/04 08:18:55;;;;;;;2.65;1.42;;;23.40;99.90;;;;;;4991201;28;20132;-67
2022/06/04 08:21:21;;;;;;;8.23;1.60;;;23.20;99.90;;;;;;4973784;28;20546;-68
2022/06/04 08:23:47;;;;;;;5.05;1.80;;;23.30;99.90;;;;;;4992961;28;20042;-68
2022/06/04 08:26:14;;;;;;;15.02;2.80;;;23.00;99.90;;;;;;4993676;28;20038;-67
2022/06/04 08:28:40;;;;;;;7.68;1.52;;;23.10;99.90;;;;;;4996300;28;20046;-68
2022/06/04 08:31:09;;;;;;;4.10;1.17;;;23.00;99.90;;;;;;4996242;28;20137;-67
2022/06/04 08:33:36;;;;;;;5.35;1.73;;;23.00;99.90;;;;;;4996752;28;20534;-67
2022/06/04 08:36:04;;;;;;;3.75;1.33;;;23.30;99.90;;;;;;4996490;28;20843;-68
2022/06/04 08:38:31;;;;;;;4.30;1.65;;;23.70;99.90;;;;;;4996320;28;20046;-68
2022/06/04 08:41:01;;;;;;;11.30;1.95;;;23.80;99.90;;;;;;4995625;28;20073;-67
2022/06/04 08:43:41;;;;;;;8.02;1.42;;;24.40;99.90;;;;;;4980222;28;20097;-67
2022/06/04 08:46:32;;;;;;;8.60;1.35;;;24.20;99.90;;;;;;4988689;28;20057;-67
2022/06/04 08:49:05;;;;;;;8.90;1.55;;;24.30;99.90;;;;;;4992462;28;20065;-68
2022/06/04 08:51:37;;;;;;;3.83;1.48;;;24.70;99.90;;;;;;4976376;28;20080;-67
2022/06/04 08:57:32;;;;;;;4.85;1.58;;;24.50;99.90;;;;;;4993274;28;20054;-67
2022/06/04 08:59:58;;;;;;;4.95;1.73;;;24.30;99.90;;;;;;4993256;28;20593;-66
2022/06/04 09:02:35;;;;;;;8.23;1.67;;;25.00;99.90;;;;;;4993227;28;20611;-66
2022/06/04 09:05:32;;;;;;;4.80;1.58;;;25.20;99.90;;;;;;4993798;28;20454;-66
2022/06/04 09:08:05;;;;;;;5.38;1.73;;;25.20;99.90;;;;;;4993689;28;20045;-67
2022/06/04 09:10:39;;;;;;;7.97;1.67;;;25.70;99.90;;;;;;4993681;28;20050;-67
2022/06/04 09:13:30;;;;;;;7.15;1.80;;;25.60;99.90;;;;;;4973842;28;20070;-67
2022/06/04 09:16:02;;;;;;;12.05;2.40;;;25.80;99.90;;;;;;4993671;28;20088;-67
2022/06/04 09:18:34;;;;;;;7.72;1.88;;;25.40;99.90;;;;;;4993984;28;20049;-67
2022/06/04 09:21:01;;;;;;;5.80;1.67;;;25.90;99.90;;;;;;4995203;28;20050;-67
2022/06/04 09:23:36;;;;;;;5.82;2.00;;;26.00;99.90;;;;;;4993180;28;20069;-67
2022/06/04 09:26:15;;;;;;;7.43;2.10;;;25.70;99.90;;;;;;4993130;28;20042;-67
2022/06/04 09:29:09;;;;;;;7.67;2.43;;;25.90;99.90;;;;;;4991973;28;20069;-67
2022/06/04 09:32:27;;;;;;;8.18;1.42;;;26.10;99.90;;;;;;4993795;28;20587;-67
2022/06/04 09:34:55;;;;;;;11.00;2.20;;;26.20;99.90;;;;;;4952034;29;20624;-67
2022/06/04 09:37:24;;;;;;;6.05;1.77;;;26.60;99.90;;;;;;4984633;28;20038;-67
2022/06/04 09:40:03;;;;;;;6.25;2.00;;;26.40;99.90;;;;;;4976992;28;20053;-66
2022/06/04 09:42:38;;;;;;;7.75;2.58;;;26.30;99.90;;;;;;4992862;28;20046;-67
2022/06/04 09:45:05;;;;;;;8.18;2.22;;;26.30;99.90;;;;;;4970572;28;20050;-66
2022/06/04 09:47:36;;;;;;;14.00;3.05;;;26.60;99.90;;;;;;4992450;28;20042;-67
2022/06/04 09:50:26;;;;;;;6.55;2.08;;;25.80;99.90;;;;;;4992466;28;20038;-66
2022/06/04 09:53:18;;;;;;;14.88;3.20;;;25.60;99.90;;;;;;4993102;28;20501;-66
2022/06/04 09:56:10;;;;;;;7.70;2.22;;;25.60;99.90;;;;;;4993301;28;20072;-66
2022/06/04 09:58:45;;;;;;;5.75;1.42;;;25.60;99.90;;;;;;4988844;28;20487;-66
2022/06/04 10:01:16;;;;;;;5.85;2.22;;;25.90;99.90;;;;;;4994089;28;20042;-66
2022/06/04 10:03:46;;;;;;;8.35;2.20;;;25.90;99.90;;;;;;4994753;28;20502;-66
2022/06/04 10:06:15;;;;;;;4.10;2.00;;;25.60;99.90;;;;;;4977107;28;20050;-66
2022/06/04 10:11:36;;;;;;;9.18;2.00;;;25.80;99.90;;;;;;4993628;28;20099;-66
2022/06/04 10:14:03;;;;;;;4.95;2.05;;;;;;;;;;4992112;28;20050;-67
2022/06/04 10:16:44;;;;;;;7.38;2.53;;;26.90;99.90;;;;;;4994213;28;20117;-66
2022/06/04 10:19:13;;;;;;;8.57;2.60;;;26.70;99.90;;;;;;4993555;28;20038;-67
2022/06/04 10:21:41;;;;;;;15.27;3.25;;;26.30;99.90;;;;;;4992444;28;20501;-67
2022/06/04 10:24:28;;;;;;;12.15;2.78;;;26.50;99.90;;;;;;4991922;28;20038;-67
2022/06/04 10:26:54;;;;;;;6.55;2.38;;;26.50;99.90;;;;;;4992213;28;20041;-67
2022/06/04 10:29:29;;;;;;;5.72;2.45;;;26.30;99.90;;;;;;4993264;28;20050;-67
2022/06/04 10:32:10;;;;;;;11.10;2.55;;;26.50;99.90;;;;;;4993431;28;20061;-67
2022/06/04 10:34:46;;;;;;;13.88;3.90;;;26.20;99.90;;;;;;4974554;28;20500;-66
2022/06/04 10:37:23;;;;;;;9.63;2.47;;;26.20;99.90;;;;;;4992199;28;20046;-68
2022/06/04 10:40:30;;;;;;;5.28;2.05;;;26.10;99.90;;;;;;4991935;28;20034;-68
2022/06/04 10:43:14;;;;;;;5.40;2.72;;;26.40;99.90;;;;;;4992076;28;20046;-68
2022/06/04 10:45:45;;;;;;;9.70;2.30;;;26.00;99.90;;;;;;4987932;28;20043;-68
2022/06/04 10:48:39;;;;;;;10.27;2.80;;;26.00;99.90;;;;;;4990433;28;20049;-68
2022/06/04 10:51:33;;;;;;;10.13;2.88;;;26.40;99.90;;;;;;4991017;28;20080;-68
2022/06/04 10:54:20;;;;;;;7.10;2.50;;;26.30;99.90;;;;;;4990580;28;20050;-68
2022/06/04 10:56:51;;;;;;;9.95;2.92;;;26.30;99.90;;;;;;4991360;28;20034;-68
2022/06/04 10:59:40;;;;;;;9.75;2.78;;;26.30;99.90;;;;;;4988963;28;20069;-68
2022/06/04 11:02:25;;;;;;;7.03;2.50;;;26.30;99.90;;;;;;4985014;28;20513;-67
2022/06/04 11:05:12;;;;;;;10.23;3.03;;;26.30;99.90;;;;;;4991379;28;20053;-67
2022/06/04 11:07:57;;;;;;;10.80;3.05;;;26.30;99.90;;;;;;4989029;28;20038;-67
2022/06/04 11:10:38;;;;;;;11.70;3.03;;;26.40;99.90;;;;;;4992814;28;20137;-67
2022/06/04 11:13:23;;;;;;;7.43;2.70;;;;;;;;;;4993129;28;20042;-67
2022/06/04 11:16:23;;;;;;;6.43;2.00;;;27.00;99.90;;;;;;4992873;28;20125;-68
2022/06/04 11:19:11;;;;;;;12.00;3.17;;;26.30;99.90;;;;;;4991716;28;20042;-68
2022/06/04 11:22:03;;;;;;;11.43;2.72;;;26.20;99.90;;;;;;4991055;28;20524;-67
2022/06/04 11:24:37;;;;;;;12.38;4.55;;;25.80;99.90;;;;;;4991488;28;20039;-67
2022/06/04 11:27:12;;;;;;;11.68;3.08;;;25.70;99.90;;;;;;4987320;28;20525;-68
2022/06/04 11:29:40;;;;;;;15.95;3.20;;;26.10;99.90;;;;;;4989093;28;20096;-68
2022/06/04 11:32:12;;;;;;;12.30;4.50;;;26.60;99.90;;;;;;4989563;28;20062;-67
2022/06/04 11:35:18;;;;;;;11.65;2.88;;;26.90;99.90;;;;;;4983420;28;20030;-67
2022/06/04 11:38:14;;;;;;;14.80;3.97;;;27.50;99.90;;;;;;4965250;28;20042;-68
2022/06/04 11:41:05;;;;;;;20.85;10.10;;;28.00;99.90;;;;;;4970256;28;20375;-67
2022/06/04 11:43:44;;;;;;;11.93;4.63;;;28.00;99.90;;;;;;4983927;28;20042;-67
2022/06/04 11:46:32;;;;;;;14.85;3.33;;;27.10;99.90;;;;;;4983118;28;20070;-68
2022/06/04 11:49:13;;;;;;;14.95;5.68;;;27.00;99.90;;;;;;4982537;28;20081;-67
2022/06/04 11:52:19;;;;;;;9.00;3.13;;;27.40;99.90;;;;;;4983117;28;20464;-68
2022/06/04 11:55:16;;;;;;;10.32;3.25;;;27.00;99.90;;;;;;4982379;28;20045;-67
2022/06/04 11:58:02;;;;;;;11.43;3.03;;;26.90;99.90;;;;;;4991241;28;20034;-67
2022/06/04 12:00:38;;;;;;;30.42;20.25;;;26.70;99.90;;;;;;4991025;28;20082;-68
2022/06/04 12:03:27;;;;;;;10.77;2.55;;;26.90;99.90;;;;;;4996462;28;20044;-67
2022/06/04 12:06:22;;;;;;;14.80;3.22;;;27.10;99.90;;;;;;4984011;28;20509;-68
2022/06/04 12:09:07;;;;;;;9.07;2.63;;;26.90;99.90;;;;;;4991540;28;21348;-68
2022/06/04 12:11:41;;;;;;;16.00;3.40;;;26.90;99.90;;;;;;4993095;28;20054;-67
2022/06/04 12:14:32;;;;;;;16.40;3.15;;;27.20;99.90;;;;;;4993461;28;20092;-67
2022/06/04 12:17:27;;;;;;;15.60;3.63;;;27.20;99.90;;;;;;4993575;28;20412;-67
2022/06/04 12:26:27;;;;;;;12.90;3.75;;;27.00;99.90;;;;;;4994414;28;20041;-67
2022/06/04 12:28:57;;;;;;;12.68;3.55;;;26.90;99.70;;;;;;4996328;28;20041;-67
2022/06/04 12:31:36;;;;;;;12.68;2.80;;;27.30;99.90;;;;;;4977395;28;20535;-67
2022/06/04 12:34:26;;;;;;;13.00;4.00;;;27.30;99.90;;;;;;4994476;28;20050;-67
2022/06/04 12:36:52;;;;;;;;;;;27.60;99.90;;;;;;4995371;28;20640;-67
2022/06/04 12:39:38;;;;;;;11.10;3.45;;;27.40;99.90;;;;;;4995724;28;19916;-67
2022/06/04 12:42:22;;;;;;;16.17;3.15;;;27.40;99.50;;;;;;4994402;28;20085;-67
2022/06/04 12:45:02;;;;;;;11.75;3.45;;;27.40;99.10;;;;;;4991488;28;20054;-67
2022/06/04 12:47:30;;;;;;;;;;;27.30;99.30;;;;;;4993984;28;20054;-67
2022/06/04 12:50:22;;;;;;;15.43;2.92;;;27.30;98.50;;;;;;4992955;28;19909;-68
2022/06/04 12:52:58;;;;;;;9.95;3.92;;;27.40;98.40;;;;;;4991349;28;20501;-67
2022/06/04 12:55:52;;;;;;;13.80;2.83;;;27.70;98.90;;;;;;4992844;28;20062;-67
2022/06/04 12:58:41;;;;;;;13.50;3.17;;;27.80;98.20;;;;;;4985770;28;20042;-67
2022/06/04 13:01:12;;;;;;;20.85;3.58;;;27.50;97.60;;;;;;4992784;28;20396;-67
2022/06/04 13:03:43;;;;;;;21.35;3.35;;;27.80;98.10;;;;;;4991811;28;20045;-68
2022/06/04 13:06:14;;;;;;;;;;;27.90;98.60;;;;;;4995881;28;20494;-67
2022/06/04 13:08:46;;;;;;;10.15;2.95;;;28.20;98.40;;;;;;4994085;28;19910;-67
2022/06/04 13:11:35;;;;;;;14.75;3.50;;;27.70;97.60;;;;;;4993954;28;20054;-67
2022/06/04 13:14:30;;;;;;;8.37;3.03;;;28.00;98.60;;;;;;4994345;28;20101;-67
2022/06/04 13:16:58;;;;;;;16.08;3.78;;;28.00;98.80;;;;;;4989456;28;20038;-67
2022/06/04 13:19:49;;;;;;;12.75;3.10;;;28.20;98.10;;;;;;4993601;28;20501;-67
2022/06/04 13:22:33;;;;;;;14.38;3.60;;;28.20;97.10;;;;;;4995347;28;20145;-68
2022/06/04 13:25:01;;;;;;;13.60;4.05;;;28.30;98.60;;;;;;4993458;28;20042;-68
2022/06/04 13:27:44;;;;;;;18.40;4.00;;;28.40;98.00;;;;;;4992776;28;20049;-68
2022/06/04 13:30:25;;;;;;;8.75;2.90;;;28.30;97.50;;;;;;4992438;28;20045;-68
2022/06/04 13:32:51;;;;;;;13.27;3.13;;;28.20;99.20;;;;;;4993051;28;20046;-68
2022/06/04 13:35:25;;;;;;;16.58;3.85;;;28.10;99.20;;;;;;4993558;28;20053;-67
2022/06/04 13:37:52;;;;;;;14.35;3.35;;;28.00;98.90;;;;;;4976751;28;20046;-67